createdAt,value
2018-09-10T00:00:05.547Z,64.20
2018-09-10T00:02:34.043Z,64.66
2018-09-10T00:05:02.519Z,64.81
2018-09-10T00:07:31.024Z,64.97
2018-09-10T00:09:59.513Z,64.94
2018-09-10T00:12:27.871Z,65.37
2018-09-10T00:14:56.212Z,66.11
2018-09-10T00:17:24.610Z,65.66
2018-09-10T00:19:53.015Z,66.04
2018-09-10T00:22:21.350Z,66.21
2018-09-10T00:24:49.727Z,66.22
2018-09-10T00:27:18.110Z,66.13
2018-09-10T00:29:46.496Z,65.89
2018-09-10T00:32:14.899Z,65.88
2018-09-10T00:34:43.754Z,65.99
2018-09-10T00:37:12.108Z,66.35
2018-09-10T00:39:40.429Z,66.57
2018-09-10T00:42:08.759Z,66.80
2018-09-10T00:44:37.919Z,66.85
2018-09-10T00:47:06.289Z,66.88
2018-09-10T00:49:34.612Z,66.81
2018-09-10T00:52:02.922Z,66.63
2018-09-10T00:54:31.399Z,66.78
2018-09-10T00:56:59.858Z,66.72
2018-09-10T00:59:28.192Z,67.14
2018-09-10T01:01:56.824Z,67.10
2018-09-10T01:04:25.155Z,67.22
2018-09-10T01:06:53.625Z,66.96
2018-09-10T01:09:22.171Z,67.19
2018-09-10T01:11:50.507Z,67.09
2018-09-10T01:14:18.843Z,66.78
2018-09-10T01:16:47.283Z,67.00
2018-09-10T01:19:15.857Z,67.40
2018-09-10T01:21:44.223Z,67.58
2018-09-10T01:24:12.704Z,67.52
2018-09-10T01:26:41.145Z,67.83
2018-09-10T01:29:09.481Z,67.73
2018-09-10T01:31:37.951Z,67.42
2018-09-10T01:34:11.793Z,67.50
2018-09-10T01:36:40.222Z,67.51
2018-09-10T01:39:09.539Z,67.21
2018-09-10T01:41:37.872Z,67.48
2018-09-10T01:44:06.278Z,67.63
2018-09-10T01:46:34.747Z,67.23
2018-09-10T01:49:03.075Z,67.45
2018-09-10T01:51:31.635Z,67.09
2018-09-10T01:54:00.214Z,67.03
2018-09-10T01:56:28.754Z,66.62
2018-09-10T01:58:57.143Z,66.79
2018-09-10T02:01:25.465Z,66.67
2018-09-10T02:03:53.963Z,66.81
2018-09-10T02:06:22.343Z,66.35
2018-09-10T02:08:50.671Z,66.37
2018-09-10T02:11:19.119Z,66.40
2018-09-10T02:13:47.479Z,66.56
2018-09-10T02:16:16.958Z,66.28
2018-09-10T02:18:46.415Z,66.00
2018-09-10T02:21:15.275Z,66.12
2018-09-10T02:23:43.705Z,66.63
2018-09-10T02:26:12.066Z,66.38
2018-09-10T02:28:40.487Z,66.09
2018-09-10T02:31:08.803Z,65.98
2018-09-10T02:33:37.183Z,65.89
2018-09-10T02:36:05.751Z,65.87
2018-09-10T02:38:34.192Z,65.72
2018-09-10T02:41:02.519Z,65.80
2018-09-10T02:43:31.092Z,65.31
2018-09-10T02:45:59.420Z,65.09
2018-09-10T02:48:27.820Z,65.16
2018-09-10T02:50:56.277Z,65.19
2018-09-10T02:53:24.722Z,65.33
2018-09-10T02:55:53.056Z,65.14
2018-09-10T02:58:21.784Z,65.10
2018-09-10T03:00:50.312Z,65.41
2018-09-10T03:03:18.740Z,65.19
2018-09-10T03:05:47.187Z,64.88
2018-09-10T03:08:15.605Z,65.03
2018-09-10T03:10:43.972Z,64.95
2018-09-10T03:13:12.396Z,65.20
2018-09-10T03:15:40.760Z,65.15
2018-09-10T03:18:09.128Z,65.30
2018-09-10T03:20:37.495Z,65.35
2018-09-10T03:23:06.308Z,65.50
2018-09-10T03:25:34.643Z,65.65
2018-09-10T03:28:02.997Z,65.42
2018-09-10T03:30:31.430Z,65.30
2018-09-10T03:32:59.811Z,65.21
2018-09-10T03:35:28.171Z,65.06
2018-09-10T03:37:56.547Z,65.24
2018-09-10T03:40:24.931Z,64.91
2018-09-10T03:42:53.505Z,65.45
2018-09-10T03:45:21.891Z,65.63
2018-09-10T03:47:50.220Z,65.04
2018-09-10T03:50:18.745Z,64.81
2018-09-10T03:52:47.165Z,64.86
2018-09-10T03:55:15.521Z,64.45
2018-09-10T03:57:43.907Z,64.35
2018-09-10T04:00:12.577Z,64.63
2018-09-10T04:02:40.950Z,65.15
2018-09-10T04:05:09.635Z,65.05
2018-09-10T04:07:38.284Z,64.92
2018-09-10T04:10:06.662Z,65.09
2018-09-10T04:12:35.177Z,64.94
2018-09-10T04:15:03.656Z,64.71
2018-09-10T04:17:34.982Z,65.00
2018-09-10T04:20:10.756Z,65.21
2018-09-10T04:22:40.351Z,64.90
2018-09-10T04:25:08.816Z,64.87
2018-09-10T04:27:37.811Z,64.65
2018-09-10T04:30:10.144Z,64.81
2018-09-10T04:32:38.685Z,64.90
2018-09-10T04:35:07.024Z,64.89
2018-09-10T04:37:35.452Z,64.88
2018-09-10T04:40:04.235Z,64.64
2018-09-10T04:42:32.716Z,65.06
2018-09-10T04:45:01.345Z,65.54
2018-09-10T04:47:29.791Z,65.63
2018-09-10T04:49:58.331Z,65.36
2018-09-10T04:52:26.662Z,65.63
2018-09-10T04:54:55.011Z,65.63
2018-09-10T04:57:23.347Z,65.71
2018-09-10T04:59:51.773Z,65.40
2018-09-10T05:02:20.212Z,64.95
2018-09-10T05:04:48.635Z,65.24
2018-09-10T05:07:16.977Z,64.73
2018-09-10T05:09:45.600Z,64.79
2018-09-10T05:12:13.917Z,64.94
2018-09-10T05:14:42.266Z,65.05
2018-09-10T05:17:10.702Z,65.69
2018-09-10T05:19:39.005Z,65.38
2018-09-10T05:22:07.464Z,65.56
2018-09-10T05:24:35.802Z,65.87
2018-09-10T05:27:04.161Z,65.90
2018-09-10T05:29:33.309Z,66.18
2018-09-10T05:32:01.684Z,66.20
2018-09-10T05:34:30.011Z,66.26
2018-09-10T05:36:58.367Z,66.08
2018-09-10T05:39:26.822Z,66.23
2018-09-10T05:41:55.295Z,65.62
2018-09-10T05:44:23.885Z,66.07
2018-09-10T05:46:52.347Z,66.12
2018-09-10T05:49:20.795Z,66.73
2018-09-10T05:51:49.807Z,66.67
2018-09-10T05:54:18.246Z,66.74
2018-09-10T05:56:46.637Z,66.61
2018-09-10T05:59:15.051Z,67.01
2018-09-10T06:01:43.785Z,66.97
2018-09-10T06:04:12.105Z,67.26
2018-09-10T06:06:40.448Z,67.05
2018-09-10T06:09:09.397Z,67.03
2018-09-10T06:11:38.211Z,66.81
2018-09-10T06:14:06.613Z,66.64
2018-09-10T06:16:35.125Z,66.41
2018-09-10T06:19:03.444Z,66.50
2018-09-10T06:21:32.119Z,66.36
2018-09-10T06:24:01.894Z,66.26
2018-09-10T06:26:30.483Z,66.27
2018-09-10T06:28:58.843Z,66.76
2018-09-10T06:31:27.215Z,67.25
2018-09-10T06:33:56.510Z,67.39
2018-09-10T06:36:25.459Z,67.99
2018-09-10T06:38:54.295Z,67.59
2018-09-10T06:41:22.838Z,68.08
2018-09-10T06:43:51.271Z,68.82
2018-09-10T06:46:19.701Z,69.12
2018-09-10T06:48:48.035Z,69.01
2018-09-10T06:51:16.453Z,69.53
2018-09-10T06:53:44.832Z,69.33
2018-09-10T06:56:13.310Z,68.87
2018-09-10T06:58:41.735Z,68.76
2018-09-10T07:01:10.104Z,68.58
2018-09-10T07:03:38.687Z,68.63
2018-09-10T07:06:07.383Z,68.65
2018-09-10T07:08:35.788Z,68.72
2018-09-10T07:11:04.367Z,68.59
2018-09-10T07:13:32.732Z,68.74
2018-09-10T07:16:01.187Z,69.04
2018-09-10T07:18:29.624Z,68.71
2018-09-10T07:20:57.968Z,68.35
2018-09-10T07:23:26.331Z,68.43
2018-09-10T07:25:54.806Z,68.52
2018-09-10T07:28:23.199Z,68.51
2018-09-10T07:30:51.599Z,68.35
2018-09-10T07:33:19.911Z,67.91
2018-09-10T07:35:48.239Z,67.48
2018-09-10T07:38:16.751Z,67.23
2018-09-10T07:40:45.088Z,66.71
2018-09-10T07:43:13.427Z,67.02
2018-09-10T07:45:41.936Z,66.71
2018-09-10T07:48:10.335Z,66.47
2018-09-10T07:50:38.661Z,66.70
2018-09-10T07:53:07.099Z,67.07
2018-09-10T07:55:35.566Z,66.05
2018-09-10T07:58:03.951Z,65.90
2018-09-10T08:00:32.512Z,65.27
2018-09-10T08:03:00.943Z,65.32
2018-09-10T08:05:29.377Z,65.10
2018-09-10T08:07:57.811Z,65.17
2018-09-10T08:10:26.272Z,64.98
2018-09-10T08:12:54.727Z,64.72
2018-09-10T08:15:23.196Z,64.35
2018-09-10T08:17:51.591Z,63.85
2018-09-10T08:20:19.967Z,64.22
2018-09-10T08:22:48.821Z,63.80
2018-09-10T08:25:17.303Z,63.22
2018-09-10T08:27:45.624Z,63.13
2018-09-10T08:30:14.189Z,62.92
2018-09-10T08:32:42.608Z,62.69
2018-09-10T08:35:11.111Z,62.68
2018-09-10T08:37:39.547Z,62.88
2018-09-10T08:40:08.034Z,62.11
2018-09-10T08:42:36.409Z,62.01
2018-09-10T08:45:05.297Z,61.52
2018-09-10T08:47:33.657Z,61.15
2018-09-10T08:50:02.148Z,60.45
2018-09-10T08:52:30.540Z,59.96
2018-09-10T08:54:59.325Z,59.90
2018-09-10T08:57:27.263Z,59.81
2018-09-10T08:59:55.715Z,59.24
2018-09-10T09:02:24.148Z,59.79
2018-09-10T09:04:52.517Z,59.39
2018-09-10T09:07:20.920Z,59.37
2018-09-10T09:09:49.467Z,59.37
2018-09-10T09:12:17.846Z,58.91
2018-09-10T09:14:46.236Z,59.02
2018-09-10T09:17:14.723Z,58.93
2018-09-10T09:19:43.112Z,58.87
2018-09-10T09:22:11.636Z,58.34
2018-09-10T09:24:40.064Z,58.27
2018-09-10T09:27:08.444Z,58.02
2018-09-10T09:29:36.847Z,57.71
2018-09-10T09:32:05.263Z,57.09
2018-09-10T09:35:07.655Z,57.12
2018-09-10T09:37:41.252Z,56.87
2018-09-10T09:40:14.887Z,57.05
2018-09-10T09:42:48.555Z,57.23
2018-09-10T09:45:22.200Z,57.32
2018-09-10T09:47:50.556Z,57.18
2018-09-10T09:50:18.948Z,57.79
2018-09-10T09:52:47.354Z,56.62
2018-09-10T09:55:15.804Z,56.51
2018-09-10T09:57:44.765Z,57.31
2018-09-10T10:00:20.180Z,56.54
2018-09-10T10:03:01.976Z,55.85
2018-09-10T10:05:30.391Z,54.77
2018-09-10T10:07:58.871Z,53.71
2018-09-10T10:10:27.246Z,53.48
2018-09-10T10:12:55.651Z,52.87
2018-09-10T10:15:24.012Z,52.38
2018-09-10T10:17:52.396Z,52.73
2018-09-10T10:20:20.796Z,52.90
2018-09-10T10:22:49.176Z,52.32
2018-09-10T10:25:17.524Z,52.81
2018-09-10T10:27:46.042Z,51.71
2018-09-10T10:30:14.404Z,49.89
2018-09-10T10:32:42.756Z,49.90
2018-09-10T10:35:11.176Z,50.61
2018-09-10T10:37:39.527Z,51.04
2018-09-10T10:40:08.156Z,50.85
2018-09-10T10:42:36.620Z,52.05
2018-09-10T10:45:05.101Z,50.08
2018-09-10T10:47:33.454Z,50.93
2018-09-10T10:50:01.914Z,50.17
2018-09-10T10:52:30.302Z,48.73
2018-09-10T10:54:58.729Z,49.58
2018-09-10T10:57:27.322Z,49.20
2018-09-10T10:59:55.732Z,49.42
2018-09-10T11:02:24.278Z,49.96
2018-09-10T11:04:52.895Z,49.34
2018-09-10T11:07:21.356Z,48.42
2018-09-10T11:09:49.963Z,47.25
2018-09-10T11:12:18.326Z,47.93
2018-09-10T11:14:46.724Z,47.82
2018-09-10T11:17:15.109Z,48.34
2018-09-10T11:19:44.462Z,48.52
2018-09-10T11:22:12.943Z,49.21
2018-09-10T11:24:41.497Z,47.80
2018-09-10T11:27:09.892Z,47.15
2018-09-10T11:29:38.338Z,45.61
2018-09-10T11:32:06.734Z,46.25
2018-09-10T11:34:35.205Z,47.00
2018-09-10T11:37:03.529Z,46.78
2018-09-10T11:39:31.991Z,46.87
2018-09-10T11:42:00.628Z,47.32
2018-09-10T11:44:29.065Z,46.57
2018-09-10T11:46:57.602Z,46.27
2018-09-10T11:49:26.189Z,47.04
2018-09-10T11:51:54.576Z,45.86
2018-09-10T11:54:23.049Z,46.03
2018-09-10T11:56:51.605Z,45.83
2018-09-10T11:59:20.028Z,46.50
2018-09-10T12:01:48.914Z,44.57
2018-09-10T12:04:18.396Z,44.95
2018-09-10T12:06:46.864Z,44.83
2018-09-10T12:09:15.244Z,44.53
2018-09-10T12:11:43.689Z,44.02
2018-09-10T12:14:12.098Z,44.46
2018-09-10T12:16:40.496Z,43.54
2018-09-10T12:19:09.030Z,43.56
2018-09-10T12:21:37.475Z,43.95
2018-09-10T12:24:05.943Z,44.32
2018-09-10T12:26:34.522Z,42.68
2018-09-10T12:29:02.900Z,42.11
2018-09-10T12:31:32.293Z,42.31
2018-09-10T12:34:00.687Z,43.46
2018-09-10T12:36:29.035Z,42.24
2018-09-10T12:38:57.427Z,42.25
2018-09-10T12:41:25.915Z,40.91
2018-09-10T12:43:54.279Z,40.94
2018-09-10T12:46:22.667Z,42.01
2018-09-10T12:48:51.118Z,40.95
2018-09-10T12:51:19.617Z,39.66
2018-09-10T12:53:47.998Z,39.28
2018-09-10T12:56:16.555Z,39.31
2018-09-10T12:58:44.945Z,38.24
2018-09-10T13:01:13.340Z,39.01
2018-09-10T13:03:41.766Z,37.37
2018-09-10T13:06:10.195Z,36.57
2018-09-10T13:08:38.639Z,36.71
2018-09-10T13:11:07.253Z,36.98
2018-09-10T13:13:35.599Z,36.52
2018-09-10T13:16:04.055Z,34.86
2018-09-10T13:18:32.448Z,34.46
2018-09-10T13:21:01.015Z,33.14
2018-09-10T13:23:29.373Z,34.99
2018-09-10T13:25:57.899Z,33.73
2018-09-10T13:28:26.588Z,34.51
2018-09-10T13:30:55.008Z,33.74
2018-09-10T13:33:23.596Z,34.40
2018-09-10T13:35:52.519Z,34.30
2018-09-10T13:38:20.912Z,34.37
2018-09-10T13:40:49.544Z,34.97
2018-09-10T13:43:18.032Z,33.57
2018-09-10T13:45:46.452Z,34.02
2018-09-10T13:48:14.956Z,33.96
2018-09-10T13:50:43.292Z,34.73
2018-09-10T13:53:11.761Z,34.47
2018-09-10T13:55:40.144Z,35.62
2018-09-10T13:58:09.286Z,34.97
2018-09-10T14:00:37.644Z,34.78
2018-09-10T14:03:06.163Z,33.47
2018-09-10T14:05:34.740Z,31.76
2018-09-10T14:08:03.094Z,32.71
2018-09-10T14:10:31.767Z,32.22
2018-09-10T14:13:00.263Z,32.12
2018-09-10T14:15:28.786Z,32.79
2018-09-10T14:17:57.225Z,33.05
2018-09-10T14:20:25.699Z,32.86
2018-09-10T14:22:55.092Z,33.15
2018-09-10T14:25:23.878Z,33.52
2018-09-10T14:27:52.287Z,34.57
2018-09-10T14:30:20.674Z,35.79
2018-09-10T14:32:49.233Z,35.00
2018-09-10T14:35:17.655Z,35.69
2018-09-10T14:37:46.015Z,35.12
2018-09-10T14:40:14.862Z,35.65
2018-09-10T14:42:43.331Z,35.67
2018-09-10T14:45:11.712Z,36.03
2018-09-10T14:47:40.267Z,35.71
2018-09-10T14:50:08.624Z,36.85
2018-09-10T14:52:37.092Z,36.80
2018-09-10T14:55:06.635Z,36.07
2018-09-10T14:57:35.144Z,37.08
2018-09-10T15:00:03.656Z,37.17
2018-09-10T15:02:32.280Z,37.77
2018-09-10T15:05:00.695Z,37.02
2018-09-10T15:07:29.155Z,36.51
2018-09-10T15:09:57.711Z,36.47
2018-09-10T15:12:26.107Z,36.20
2018-09-10T15:14:54.456Z,36.37
2018-09-10T15:17:22.895Z,36.18
2018-09-10T15:19:51.359Z,36.18
2018-09-10T15:22:19.936Z,35.33
2018-09-10T15:24:48.339Z,35.62
2018-09-10T15:27:16.684Z,36.94
2018-09-10T15:29:45.063Z,36.59
2018-09-10T15:32:13.475Z,35.75
2018-09-10T15:34:41.935Z,35.93
2018-09-10T15:37:10.320Z,34.99
2018-09-10T15:39:38.716Z,35.46
2018-09-10T15:42:07.167Z,36.23
2018-09-10T15:44:35.640Z,35.99
2018-09-10T15:47:04.060Z,36.12
2018-09-10T15:49:32.398Z,35.95
2018-09-10T15:52:00.736Z,36.74
2018-09-10T15:54:29.150Z,36.51
2018-09-10T15:56:57.536Z,36.99
2018-09-10T15:59:25.960Z,36.76
2018-09-10T16:01:54.818Z,37.03
2018-09-10T16:04:23.168Z,36.24
2018-09-10T16:06:51.892Z,36.88
2018-09-10T16:09:20.294Z,37.23
2018-09-10T16:11:48.736Z,37.69
2018-09-10T16:14:17.296Z,37.99
2018-09-10T16:16:45.754Z,38.62
2018-09-10T16:19:14.166Z,38.41
2018-09-10T16:21:42.536Z,38.52
2018-09-10T16:24:10.960Z,39.06
2018-09-10T16:26:39.320Z,38.77
2018-09-10T16:29:07.684Z,39.22
2018-09-10T16:31:36.103Z,38.61
2018-09-10T16:34:04.546Z,39.13
2018-09-10T16:36:32.911Z,38.43
2018-09-10T16:39:01.343Z,38.86
2018-09-10T16:41:29.719Z,38.58
2018-09-10T16:43:58.143Z,38.32
2018-09-10T16:46:26.563Z,38.75
2018-09-10T16:48:55.003Z,38.88
2018-09-10T16:51:23.714Z,37.85
2018-09-10T16:53:52.288Z,39.08
2018-09-10T16:56:20.684Z,39.25
2018-09-10T16:58:49.411Z,38.85
2018-09-10T17:01:17.879Z,39.68
2018-09-10T17:03:46.369Z,39.29
2018-09-10T17:06:14.806Z,39.63
2018-09-10T17:08:43.167Z,39.95
2018-09-10T17:11:11.551Z,40.21
2018-09-10T17:13:39.931Z,38.88
2018-09-10T17:16:08.467Z,38.66
2018-09-10T17:18:36.949Z,39.72
2018-09-10T17:21:05.383Z,41.04
2018-09-10T17:23:33.751Z,42.34
2018-09-10T17:26:02.162Z,42.97
2018-09-10T17:28:30.500Z,43.22
2018-09-10T17:30:58.951Z,44.45
2018-09-10T17:33:27.356Z,44.74
2018-09-10T17:35:55.843Z,45.71
2018-09-10T17:38:24.387Z,46.43
2018-09-10T17:40:52.835Z,46.78
2018-09-10T17:43:21.195Z,46.55
2018-09-10T17:45:49.756Z,46.40
2018-09-10T17:48:18.259Z,47.27
2018-09-10T17:50:46.671Z,48.05
2018-09-10T17:53:15.283Z,48.05
2018-09-10T17:55:43.676Z,48.30
2018-09-10T17:58:12.076Z,48.86
2018-09-10T18:00:42.039Z,49.25
2018-09-10T18:03:11.861Z,49.94
2018-09-10T18:05:40.275Z,49.99
2018-09-10T18:08:08.898Z,50.40
2018-09-10T18:10:37.805Z,50.60
2018-09-10T18:13:07.718Z,50.93
2018-09-10T18:15:36.215Z,51.16
2018-09-10T18:18:05.083Z,51.54
2018-09-10T18:20:34.134Z,51.07
2018-09-10T18:23:02.811Z,51.12
2018-09-10T18:25:31.270Z,51.51
2018-09-10T18:27:59.830Z,51.42
2018-09-10T18:30:28.317Z,51.72
2018-09-10T18:32:56.797Z,51.42
2018-09-10T18:35:25.328Z,51.30
2018-09-10T18:37:53.783Z,51.77
2018-09-10T18:40:22.345Z,52.05
2018-09-10T18:42:50.559Z,52.51
2018-09-10T18:45:19.192Z,52.64
2018-09-10T18:47:47.634Z,52.82
2018-09-10T18:50:16.143Z,52.80
2018-09-10T18:52:44.660Z,53.05
2018-09-10T18:55:13.540Z,53.05
2018-09-10T18:57:41.931Z,53.12
2018-09-10T19:00:10.503Z,53.12
2018-09-10T19:02:38.946Z,53.45
2018-09-10T19:05:07.688Z,54.18
2018-09-10T19:07:36.279Z,53.99
2018-09-10T19:10:04.903Z,54.36
2018-09-10T19:12:33.479Z,54.62
2018-09-10T19:15:02.038Z,54.81
2018-09-10T19:17:30.449Z,55.45
2018-09-10T19:19:58.776Z,55.27
2018-09-10T19:22:27.179Z,55.31
2018-09-10T19:24:55.547Z,55.53
2018-09-10T19:27:24.623Z,55.74
2018-09-10T19:29:53.206Z,55.82
2018-09-10T19:32:21.696Z,55.74
2018-09-10T19:34:50.574Z,55.50
2018-09-10T19:37:19.157Z,55.48
2018-09-10T19:39:47.622Z,55.73
2018-09-10T19:42:16.066Z,55.59
2018-09-10T19:44:45.615Z,55.37
2018-09-10T19:47:14.160Z,55.28
2018-09-10T19:49:43.608Z,54.97
2018-09-10T19:52:12.202Z,54.93
2018-09-10T19:54:41.664Z,54.57
2018-09-10T19:57:11.131Z,54.75
2018-09-10T19:59:39.745Z,54.35
2018-09-10T20:02:08.174Z,54.55
2018-09-10T20:04:37.462Z,54.25
2018-09-10T20:07:06.060Z,54.43
2018-09-10T20:09:34.437Z,54.58
2018-09-10T20:12:02.876Z,54.92
2018-09-10T20:14:31.432Z,54.91
2018-09-10T20:17:00.617Z,54.91
2018-09-10T20:19:29.259Z,54.72
2018-09-10T20:21:57.823Z,55.18
2018-09-10T20:24:26.322Z,55.13
2018-09-10T20:26:54.774Z,55.65
2018-09-10T20:29:23.290Z,55.60
2018-09-10T20:31:51.756Z,55.37
2018-09-10T20:34:20.189Z,55.28
2018-09-10T20:36:48.709Z,55.11
2018-09-10T20:39:17.188Z,55.21
2018-09-10T20:41:45.580Z,55.25
2018-09-10T20:44:14.116Z,55.55
2018-09-10T20:46:43.837Z,55.26
2018-09-10T20:49:12.348Z,55.25
2018-09-10T20:51:40.750Z,55.25
2018-09-10T20:54:09.165Z,55.84
2018-09-10T20:56:37.556Z,55.76
2018-09-10T20:59:06.212Z,55.48
2018-09-10T21:01:34.648Z,55.38
2018-09-10T21:04:03.135Z,55.79
2018-09-10T21:06:32.100Z,55.04
2018-09-10T21:09:00.716Z,54.99
2018-09-10T21:11:29.236Z,54.77
2018-09-10T21:13:57.920Z,54.59
2018-09-10T21:16:26.467Z,55.03
2018-09-10T21:18:55.016Z,55.33
2018-09-10T21:21:23.509Z,54.83
2018-09-10T21:23:51.996Z,54.83
2018-09-10T21:26:20.319Z,55.04
2018-09-10T21:28:48.795Z,54.83
2018-09-10T21:31:17.143Z,55.32
2018-09-10T21:33:45.580Z,54.93
2018-09-10T21:36:13.975Z,55.23
2018-09-10T21:38:42.355Z,54.84
2018-09-10T21:41:10.686Z,54.95
2018-09-10T21:43:39.408Z,55.22
2018-09-10T21:46:07.776Z,55.49
2018-09-10T21:48:37.024Z,55.85
2018-09-10T21:51:05.502Z,55.39
2018-09-10T21:53:33.836Z,55.91
2018-09-10T21:56:02.160Z,55.79
2018-09-10T21:58:30.621Z,55.72
2018-09-10T22:00:59.218Z,56.29
2018-09-10T22:03:28.047Z,56.06
2018-09-10T22:05:56.626Z,55.78
2018-09-10T22:08:25.642Z,56.42
2018-09-10T22:10:54.075Z,56.07
2018-09-10T22:13:22.538Z,56.58
2018-09-10T22:15:51.128Z,56.05
2018-09-10T22:18:19.448Z,56.45
2018-09-10T22:20:47.916Z,56.32
2018-09-10T22:23:16.309Z,56.49
2018-09-10T22:25:44.642Z,56.15
2018-09-10T22:28:13.111Z,56.23
2018-09-10T22:30:41.552Z,56.66
2018-09-10T22:33:09.948Z,56.67
2018-09-10T22:35:38.338Z,56.90
2018-09-10T22:38:06.678Z,56.92
2018-09-10T22:40:35.002Z,56.67
2018-09-10T22:43:03.468Z,57.05
2018-09-10T22:45:31.808Z,57.17
2018-09-10T22:48:00.178Z,57.49
2018-09-10T22:50:28.606Z,57.83
2018-09-10T22:52:56.918Z,57.52
2018-09-10T22:55:25.339Z,58.00
2018-09-10T22:57:53.746Z,57.75
2018-09-10T23:00:22.187Z,57.70
2018-09-10T23:02:50.964Z,58.06
2018-09-10T23:05:19.422Z,57.70
2018-09-10T23:07:47.797Z,57.85
2018-09-10T23:10:16.178Z,58.08
2018-09-10T23:12:44.625Z,58.25
2018-09-10T23:15:12.971Z,58.11
2018-09-10T23:17:41.563Z,58.17
2018-09-10T23:20:10.162Z,58.24
2018-09-10T23:22:38.512Z,58.58
2018-09-10T23:25:06.902Z,58.78
2018-09-10T23:27:35.463Z,58.95
2018-09-10T23:30:03.925Z,58.89
2018-09-10T23:32:32.331Z,58.69
2018-09-10T23:35:00.876Z,58.61
2018-09-10T23:37:29.314Z,58.27
2018-09-10T23:39:57.824Z,58.58
2018-09-10T23:42:26.342Z,58.46
2018-09-10T23:44:54.742Z,58.45
2018-09-10T23:47:23.160Z,58.47
2018-09-10T23:49:51.656Z,58.73
2018-09-10T23:52:20.088Z,58.72
2018-09-10T23:54:48.406Z,59.05
2018-09-10T23:57:16.924Z,58.76
2018-09-10T23:59:45.372Z,58.87
